KETN/ETN METAR and TAF weather

Enter ICAO airport designator
Station Type Date Time Source
KETN METAR 2022/07/03 14:10 UTC NOAA

KETN 031410Z AUTO 20008KT 10SM BKN085 28/22 A3004 RMK AO2 T02790220


Station Type Date Time Source
KETN Decoded METAR 2022/07/03 14:10 UTC NOAA

Station name not available
Jul 03, 2022 - 10:10 AM EDT / 2022.07.03 1410 UTC
Wind: from the SSW (200 degrees) at 9 MPH (8 KT):0
Visibility: 10 mile(s):0
Sky conditions: mostly cloudy
Temperature: 82.2 F (27.9 C)
Dew Point: 71.6 F (22.0 C)
Relative Humidity: 70%
Pressure (altimeter): 30.04 in. Hg (1017 hPa)
ob: KETN 031410Z AUTO 20008KT 10SM BKN085 28/22 A3004 RMK AO2 T02790220
cycle: 14

Station Type Date Time Source
KETN TAF UTC NOAA

Error!

Example: see airport list